createdAt,value
2023-01-10T00:02:13.094Z,29.30
2023-01-10T00:04:41.142Z,30.65
2023-01-10T00:07:09.013Z,29.45
2023-01-10T00:09:36.894Z,26.85
2023-01-10T00:12:38.552Z,26.83
2023-01-10T00:15:07.633Z,21.38
2023-01-10T00:17:36.675Z,24.42
2023-01-10T00:20:05.069Z,23.48
2023-01-10T00:22:32.966Z,24.92
2023-01-10T00:25:00.745Z,21.45
2023-01-10T00:27:29.922Z,22.60
2023-01-10T00:30:01.357Z,22.75
2023-01-10T00:32:29.279Z,23.65
2023-01-10T00:34:57.042Z,22.48
2023-01-10T00:37:24.930Z,22.70
2023-01-10T00:39:52.641Z,23.88
2023-01-10T00:42:37.952Z,23.90
2023-01-10T00:45:08.717Z,19.25
2023-01-10T00:47:36.488Z,20.73
2023-01-10T00:50:05.850Z,23.35
2023-01-10T00:52:34.547Z,25.00
2023-01-10T00:55:02.902Z,25.75
2023-01-10T00:57:30.732Z,25.13
2023-01-10T00:59:58.453Z,22.65
2023-01-10T01:02:27.766Z,25.02
2023-01-10T01:04:55.738Z,23.83
2023-01-10T01:07:23.831Z,19.67
2023-01-10T01:10:09.552Z,24.65
2023-01-10T01:12:37.601Z,22.17
2023-01-10T01:15:06.750Z,25.90
2023-01-10T01:17:35.920Z,20.95
2023-01-10T01:20:05.282Z,24.88
2023-01-10T01:22:33.161Z,23.00
2023-01-10T01:25:00.991Z,20.65
2023-01-10T01:27:28.776Z,20.38
2023-01-10T01:29:56.824Z,19.77
2023-01-10T01:32:25.977Z,22.30
2023-01-10T01:34:55.438Z,21.58
2023-01-10T01:37:23.245Z,22.92
2023-01-10T01:39:51.188Z,21.20
2023-01-10T01:42:25.124Z,21.90
2023-01-10T01:45:34.138Z,21.10
2023-01-10T01:48:09.588Z,18.80
2023-01-10T01:50:43.433Z,22.25
2023-01-10T01:53:14.827Z,23.55
2023-01-10T01:55:44.815Z,24.05
2023-01-10T01:58:21.536Z,24.27
2023-01-10T02:00:49.276Z,21.85
2023-01-10T02:03:17.273Z,21.73
2023-01-10T02:05:46.807Z,25.20
2023-01-10T02:08:15.221Z,25.25
2023-01-10T02:10:49.014Z,23.05
2023-01-10T02:13:20.540Z,20.70
2023-01-10T02:15:49.310Z,24.77
2023-01-10T02:18:17.742Z,24.75
2023-01-10T02:21:04.802Z,24.58
2023-01-10T02:23:51.878Z,22.60
2023-01-10T02:26:38.819Z,19.98
2023-01-10T02:29:24.243Z,19.35
2023-01-10T02:32:10.682Z,17.63
2023-01-10T02:34:48.661Z,20.08
2023-01-10T02:37:22.953Z,18.58
2023-01-10T02:39:58.491Z,22.13
2023-01-10T02:42:31.349Z,18.17
2023-01-10T02:45:05.768Z,16.27
2023-01-10T02:47:38.802Z,17.48
2023-01-10T02:50:31.113Z,17.52
2023-01-10T02:53:03.869Z,15.35
2023-01-10T02:55:41.920Z,22.85
2023-01-10T02:58:24.537Z,16.88
2023-01-10T03:00:59.417Z,16.13
2023-01-10T03:03:37.331Z,16.67
2023-01-10T03:06:19.878Z,17.08
2023-01-10T03:08:55.154Z,13.93
2023-01-10T03:11:41.067Z,14.05
2023-01-10T03:14:16.167Z,13.70
2023-01-10T03:16:47.710Z,12.77
2023-01-10T03:19:23.858Z,12.40
2023-01-10T03:21:57.369Z,12.60
2023-01-10T03:24:29.989Z,14.70
2023-01-10T03:27:00.398Z,10.82
2023-01-10T03:29:33.222Z,9.77
2023-01-10T03:32:07.557Z,10.23
2023-01-10T03:34:37.931Z,8.43
2023-01-10T03:37:14.142Z,9.52
2023-01-10T03:39:48.263Z,7.90
2023-01-10T03:42:24.984Z,10.10
2023-01-10T03:45:01.914Z,8.60
2023-01-10T03:47:36.842Z,6.45
2023-01-10T03:50:10.233Z,8.77
2023-01-10T03:52:38.644Z,5.65
2023-01-10T03:55:09.076Z,6.57
2023-01-10T03:57:37.119Z,5.38
2023-01-10T04:00:09.822Z,6.70
2023-01-10T04:02:38.078Z,5.70
2023-01-10T04:05:08.090Z,5.18
2023-01-10T04:07:37.190Z,7.55
2023-01-10T04:10:05.503Z,4.65
2023-01-10T04:12:34.533Z,7.00
2023-01-10T04:15:03.105Z,5.70
2023-01-10T04:17:30.999Z,5.85
2023-01-10T04:19:58.923Z,4.20
2023-01-10T04:22:28.224Z,6.07
2023-01-10T04:24:57.141Z,3.88
2023-01-10T04:27:25.431Z,3.88
2023-01-10T04:29:54.302Z,6.07
2023-01-10T04:32:22.135Z,5.90
2023-01-10T04:34:49.883Z,4.95
2023-01-10T04:37:17.588Z,5.15
2023-01-10T04:39:47.108Z,4.60
2023-01-10T04:42:15.030Z,5.53
2023-01-10T04:44:42.830Z,6.03
2023-01-10T04:47:10.691Z,6.38
2023-01-10T04:49:38.463Z,6.25
2023-01-10T04:52:06.295Z,7.07
2023-01-10T04:54:34.067Z,7.63
2023-01-10T04:57:03.359Z,6.00
2023-01-10T04:59:33.600Z,6.07
2023-01-10T05:02:01.501Z,5.15
2023-01-10T05:04:29.630Z,10.07
2023-01-10T05:06:57.690Z,6.90
2023-01-10T05:09:25.560Z,7.25
2023-01-10T05:11:53.253Z,6.75
2023-01-10T05:14:22.321Z,8.00
2023-01-10T05:16:50.202Z,7.90
2023-01-10T05:19:17.970Z,7.97
2023-01-10T05:21:45.821Z,4.95
2023-01-10T05:24:13.857Z,8.38
2023-01-10T05:26:41.591Z,7.20
2023-01-10T05:29:11.705Z,9.90
2023-01-10T05:31:43.503Z,8.52
2023-01-10T05:34:12.866Z,9.10
2023-01-10T05:36:40.805Z,6.68
2023-01-10T05:39:09.684Z,8.35
2023-01-10T05:41:37.441Z,8.40
2023-01-10T05:44:06.406Z,9.30
2023-01-10T05:46:34.480Z,10.13
2023-01-10T05:49:03.699Z,10.30
2023-01-10T05:51:31.420Z,8.63
2023-01-10T05:53:59.881Z,8.43
2023-01-10T05:56:27.786Z,9.82
2023-01-10T05:59:05.361Z,7.38
2023-01-10T06:01:35.751Z,8.60
2023-01-10T06:04:05.064Z,8.80
2023-01-10T06:06:34.404Z,11.57
2023-01-10T06:09:02.584Z,8.02
2023-01-10T06:11:30.919Z,7.50
2023-01-10T06:14:01.060Z,10.02
2023-01-10T06:16:28.981Z,8.05
2023-01-10T06:18:56.947Z,11.70
2023-01-10T06:21:28.979Z,10.85
2023-01-10T06:23:56.869Z,11.20
2023-01-10T06:26:25.694Z,9.48
2023-01-10T06:28:53.447Z,8.57
2023-01-10T06:31:22.742Z,11.20
2023-01-10T06:33:52.076Z,12.57
2023-01-10T06:36:20.519Z,9.98
2023-01-10T06:38:49.894Z,9.75
2023-01-10T06:41:17.632Z,9.73
2023-01-10T06:43:48.051Z,11.35
2023-01-10T06:46:17.656Z,9.15
2023-01-10T06:48:46.467Z,10.32
2023-01-10T06:51:15.540Z,12.93
2023-01-10T06:53:43.940Z,10.65
2023-01-10T06:56:13.113Z,13.80
2023-01-10T06:58:41.173Z,13.27
2023-01-10T07:01:15.159Z,11.85
2023-01-10T07:03:44.030Z,11.82
2023-01-10T07:06:11.986Z,14.30
2023-01-10T07:08:40.551Z,12.63
2023-01-10T07:11:08.778Z,15.35
2023-01-10T07:13:38.106Z,13.43
2023-01-10T07:16:08.217Z,14.15
2023-01-10T07:18:37.968Z,12.90
2023-01-10T07:21:06.379Z,15.38
2023-01-10T07:23:34.675Z,16.52
2023-01-10T07:26:05.104Z,15.80
2023-01-10T07:28:34.428Z,16.83
2023-01-10T07:31:08.379Z,20.33
2023-01-10T07:33:36.457Z,21.55
2023-01-10T07:36:05.102Z,18.95
2023-01-10T07:38:32.936Z,23.65
2023-01-10T07:41:03.122Z,24.60
2023-01-10T07:43:31.801Z,21.83
2023-01-10T07:46:03.756Z,20.23
2023-01-10T07:48:31.903Z,16.08
2023-01-10T07:51:02.428Z,30.77
2023-01-10T07:53:31.712Z,19.42
2023-01-10T07:56:01.664Z,21.45
2023-01-10T07:58:29.598Z,20.02
2023-01-10T08:00:59.260Z,21.00
2023-01-10T08:03:29.857Z,29.00
2023-01-10T08:06:02.095Z,25.65
2023-01-10T08:08:30.079Z,24.65
2023-01-10T08:10:59.611Z,25.73
2023-01-10T08:13:27.627Z,26.83
2023-01-10T08:15:55.491Z,19.05
2023-01-10T08:18:25.761Z,17.60
2023-01-10T08:20:55.680Z,22.48
2023-01-10T08:23:23.562Z,21.42
2023-01-10T08:25:52.174Z,27.02
2023-01-10T08:28:20.161Z,22.08
2023-01-10T08:30:50.282Z,21.17
2023-01-10T08:33:19.324Z,21.15
2023-01-10T08:35:47.140Z,18.15
2023-01-10T08:38:16.903Z,17.95
2023-01-10T08:40:44.719Z,15.68
2023-01-10T08:43:13.676Z,18.50
2023-01-10T08:45:41.727Z,18.80
2023-01-10T08:48:10.579Z,18.63
2023-01-10T08:50:38.435Z,20.65
2023-01-10T08:53:06.339Z,19.30
2023-01-10T08:55:36.419Z,22.17
2023-01-10T08:58:04.324Z,22.10
2023-01-10T09:00:32.261Z,19.92
2023-01-10T09:03:00.292Z,15.50
2023-01-10T09:05:28.714Z,19.17
2023-01-10T09:08:00.263Z,18.27
2023-01-10T09:10:28.860Z,16.35
2023-01-10T09:13:01.323Z,24.92
2023-01-10T09:15:31.428Z,27.52
2023-01-10T09:18:01.095Z,17.55
2023-01-10T09:20:30.471Z,23.63
2023-01-10T09:22:59.643Z,22.27
2023-01-10T09:25:27.678Z,19.48
2023-01-10T09:28:01.501Z,18.40
2023-01-10T09:30:30.443Z,14.68
2023-01-10T09:32:59.253Z,15.98
2023-01-10T09:35:30.418Z,16.55
2023-01-10T09:38:01.095Z,18.75
2023-01-10T09:40:41.097Z,21.67
2023-01-10T09:43:22.903Z,16.48
2023-01-10T09:46:02.036Z,20.13
2023-01-10T09:48:37.752Z,18.25
2023-01-10T09:51:15.969Z,16.95
2023-01-10T09:53:46.581Z,22.25
2023-01-10T09:56:20.212Z,21.75
2023-01-10T09:58:50.169Z,19.63
2023-01-10T10:01:20.919Z,17.55
2023-01-10T10:03:55.192Z,21.08
2023-01-10T10:06:24.496Z,18.92
2023-01-10T10:08:54.149Z,23.73
2023-01-10T10:11:45.725Z,20.10
2023-01-10T10:14:29.558Z,20.85
2023-01-10T10:17:14.370Z,18.33
2023-01-10T10:19:56.743Z,21.83
2023-01-10T10:22:34.177Z,22.15
2023-01-10T10:25:14.389Z,16.30
2023-01-10T10:28:00.487Z,15.05
2023-01-10T10:30:43.394Z,19.38
2023-01-10T10:33:35.470Z,17.88
2023-01-10T10:36:11.398Z,16.95
2023-01-10T10:38:43.574Z,16.58
2023-01-10T10:41:18.257Z,14.45
2023-01-10T10:43:48.941Z,13.48
2023-01-10T10:46:20.147Z,18.92
2023-01-10T10:48:57.229Z,14.70
2023-01-10T10:51:28.916Z,14.88
2023-01-10T10:53:58.470Z,15.85
2023-01-10T10:56:27.819Z,14.43
2023-01-10T10:58:57.790Z,15.93
2023-01-10T11:01:27.644Z,15.80
2023-01-10T11:04:00.604Z,21.40
2023-01-10T11:06:34.667Z,16.40
2023-01-10T11:09:05.399Z,18.33
2023-01-10T11:11:35.669Z,14.43
2023-01-10T11:14:04.999Z,16.25
2023-01-10T11:16:37.558Z,20.38
2023-01-10T11:19:21.457Z,18.23
2023-01-10T11:21:53.490Z,14.73
2023-01-10T11:24:29.533Z,17.52
2023-01-10T11:26:59.932Z,17.90
2023-01-10T11:29:38.617Z,20.10
2023-01-10T11:32:15.402Z,16.25
2023-01-10T11:34:49.095Z,18.02
2023-01-10T11:37:22.473Z,23.80
2023-01-10T11:39:50.372Z,19.90
2023-01-10T11:42:30.597Z,17.05
2023-01-10T11:45:22.247Z,20.45
2023-01-10T11:47:55.591Z,18.73
2023-01-10T11:50:27.015Z,16.10
2023-01-10T11:52:55.916Z,19.35
2023-01-10T11:55:26.442Z,21.50
2023-01-10T11:58:05.116Z,17.30
2023-01-10T12:00:36.060Z,19.27
2023-01-10T12:03:17.758Z,18.45
2023-01-10T12:05:52.814Z,18.00
2023-01-10T12:08:29.066Z,16.70
2023-01-10T12:11:02.877Z,19.20
2023-01-10T12:13:32.683Z,23.13
2023-01-10T12:16:17.083Z,25.35
2023-01-10T12:18:47.172Z,18.83
2023-01-10T12:21:20.549Z,17.02
2023-01-10T12:23:51.131Z,22.00
2023-01-10T12:26:19.812Z,21.88
2023-01-10T12:28:53.262Z,21.25
2023-01-10T12:31:23.070Z,19.08
2023-01-10T12:33:58.186Z,17.55
2023-01-10T12:36:37.007Z,21.52
2023-01-10T12:39:16.295Z,23.75
2023-01-10T12:42:13.888Z,19.77
2023-01-10T12:44:43.947Z,26.63
2023-01-10T12:47:22.017Z,23.20
2023-01-10T12:49:57.233Z,23.20
2023-01-10T12:52:34.251Z,23.17
2023-01-10T12:55:03.248Z,20.67
2023-01-10T12:57:36.761Z,21.65
2023-01-10T13:00:07.642Z,26.10
2023-01-10T13:02:41.266Z,23.58
2023-01-10T13:05:17.991Z,18.85
2023-01-10T13:07:48.044Z,27.42
2023-01-10T13:10:18.554Z,20.70
2023-01-10T13:12:51.700Z,20.00
2023-01-10T13:15:24.152Z,17.73
2023-01-10T13:17:56.177Z,17.77
2023-01-10T13:20:38.902Z,21.60
2023-01-10T13:23:34.435Z,24.08
2023-01-10T13:26:05.972Z,21.77
2023-01-10T13:28:35.702Z,17.38
2023-01-10T13:31:07.242Z,18.48
2023-01-10T13:33:41.453Z,18.38
2023-01-10T13:36:13.694Z,22.30
2023-01-10T13:38:51.714Z,17.25
2023-01-10T13:41:38.180Z,22.38
2023-01-10T13:44:12.214Z,19.88
2023-01-10T13:46:46.334Z,22.52
2023-01-10T13:49:44.905Z,18.83
2023-01-10T13:52:41.359Z,19.55
2023-01-10T13:55:25.821Z,15.73
2023-01-10T13:57:55.727Z,19.05
2023-01-10T14:00:43.460Z,19.08
2023-01-10T14:03:43.280Z,16.83
2023-01-10T14:06:18.426Z,15.60
2023-01-10T14:08:53.910Z,16.65
2023-01-10T14:11:24.678Z,17.20
2023-01-10T14:13:55.655Z,12.73
2023-01-10T14:16:35.705Z,13.05
2023-01-10T14:19:06.330Z,17.02
2023-01-10T14:21:39.227Z,17.75
2023-01-10T14:24:25.942Z,14.20
2023-01-10T14:26:57.315Z,13.55
2023-01-10T14:29:33.263Z,10.85
2023-01-10T14:32:02.611Z,18.00
2023-01-10T14:34:35.692Z,15.90
2023-01-10T14:37:08.872Z,10.40
2023-01-10T14:39:38.695Z,13.13
2023-01-10T14:42:09.764Z,15.75
2023-01-10T14:44:45.684Z,13.50
2023-01-10T14:47:28.886Z,12.55
2023-01-10T14:49:57.953Z,11.38
2023-01-10T14:52:26.974Z,7.95
2023-01-10T14:55:17.651Z,9.02
2023-01-10T14:57:54.874Z,8.32
2023-01-10T15:00:29.129Z,11.52
2023-01-10T15:03:01.877Z,8.57
2023-01-10T15:05:32.443Z,5.85
2023-01-10T15:08:16.972Z,5.88
2023-01-10T15:10:48.077Z,6.65
2023-01-10T15:13:20.571Z,4.90
2023-01-10T15:15:51.309Z,2.60
2023-01-10T15:18:30.696Z,5.53
2023-01-10T15:20:59.265Z,4.40
2023-01-10T15:23:27.609Z,4.47
2023-01-10T15:26:00.563Z,3.40
2023-01-10T15:28:30.053Z,5.85
2023-01-10T15:30:59.596Z,4.90
2023-01-10T15:33:30.371Z,7.25
2023-01-10T15:35:58.750Z,3.17
2023-01-10T15:38:30.336Z,3.85
2023-01-10T15:41:02.739Z,8.38
2023-01-10T15:43:32.141Z,4.15
2023-01-10T15:46:01.739Z,7.18
2023-01-10T15:48:35.303Z,3.78
2023-01-10T15:51:07.262Z,4.70
2023-01-10T15:53:57.857Z,5.00
2023-01-10T15:56:29.791Z,7.50
2023-01-10T15:59:00.914Z,5.32
2023-01-10T16:01:29.447Z,4.82
2023-01-10T16:04:00.501Z,6.97
2023-01-10T16:06:31.218Z,6.22
2023-01-10T16:09:03.272Z,9.45
2023-01-10T16:11:57.389Z,4.80
2023-01-10T16:14:25.636Z,5.60
2023-01-10T16:16:53.520Z,8.32
2023-01-10T16:19:21.639Z,5.53
2023-01-10T16:21:53.906Z,6.45
2023-01-10T16:24:25.142Z,8.20
2023-01-10T16:26:56.553Z,7.40
2023-01-10T16:29:25.226Z,7.88
2023-01-10T16:31:54.820Z,6.93
2023-01-10T16:34:23.694Z,12.25
2023-01-10T16:36:51.537Z,7.25
2023-01-10T16:39:22.088Z,7.93
2023-01-10T16:42:08.256Z,14.13
2023-01-10T16:44:37.483Z,5.97
2023-01-10T16:47:07.209Z,6.55
2023-01-10T16:49:35.523Z,6.13
2023-01-10T16:52:03.695Z,10.38
2023-01-10T16:54:35.368Z,4.18
2023-01-10T16:57:03.777Z,5.55
2023-01-10T16:59:32.780Z,4.43
2023-01-10T17:02:02.028Z,8.50
2023-01-10T17:04:32.763Z,7.30
2023-01-10T17:07:00.743Z,3.67
2023-01-10T17:09:30.341Z,5.57
2023-01-10T17:12:02.798Z,7.43
2023-01-10T17:14:31.689Z,5.65
2023-01-10T17:16:59.662Z,11.77
2023-01-10T17:19:28.913Z,9.65
2023-01-10T17:21:56.707Z,8.40
2023-01-10T17:24:24.765Z,11.38
2023-01-10T17:26:52.661Z,11.48
2023-01-10T17:29:23.164Z,12.73
2023-01-10T17:31:51.499Z,20.58
2023-01-10T17:34:19.714Z,31.98
2023-01-10T17:36:49.017Z,23.92
2023-01-10T17:39:17.083Z,26.02
2023-01-10T17:41:45.323Z,14.05
2023-01-10T17:44:13.172Z,5.57
2023-01-10T17:46:41.324Z,9.07
2023-01-10T17:49:09.235Z,5.20
2023-01-10T17:51:38.759Z,6.22
2023-01-10T17:54:08.001Z,7.93
2023-01-10T17:56:35.957Z,13.68
2023-01-10T17:59:04.029Z,6.20
2023-01-10T18:01:32.087Z,14.68
2023-01-10T18:04:00.238Z,13.43
2023-01-10T18:06:28.647Z,6.28
2023-01-10T18:08:56.817Z,6.65
2023-01-10T18:11:26.046Z,7.25
2023-01-10T18:13:54.308Z,7.65
2023-01-10T18:16:22.345Z,5.03
2023-01-10T18:18:50.195Z,9.02
2023-01-10T18:21:19.848Z,9.63
2023-01-10T18:23:49.811Z,11.50
2023-01-10T18:26:17.719Z,11.85
2023-01-10T18:28:47.394Z,9.80
2023-01-10T18:31:17.160Z,8.60
2023-01-10T18:33:45.751Z,7.85
2023-01-10T18:36:15.995Z,14.82
2023-01-10T18:38:44.501Z,5.15
2023-01-10T18:41:12.450Z,6.43
2023-01-10T18:43:40.488Z,11.52
2023-01-10T18:46:12.572Z,10.98
2023-01-10T18:48:40.662Z,6.70
2023-01-10T18:51:10.022Z,14.52
2023-01-10T18:53:38.036Z,8.38
2023-01-10T18:56:06.902Z,6.35
2023-01-10T18:58:36.245Z,13.80
2023-01-10T19:01:10.727Z,11.98
2023-01-10T19:03:38.721Z,9.50
2023-01-10T19:06:10.654Z,12.20
2023-01-10T19:08:39.448Z,9.02
2023-01-10T19:11:14.035Z,13.00
2023-01-10T19:13:43.043Z,18.35
2023-01-10T19:16:14.618Z,12.05
2023-01-10T19:18:43.581Z,13.32
2023-01-10T19:21:15.343Z,10.23
2023-01-10T19:23:43.678Z,8.15
2023-01-10T19:26:12.027Z,9.75
2023-01-10T19:28:40.327Z,6.88
2023-01-10T19:31:08.303Z,7.10
2023-01-10T19:33:38.431Z,11.68
2023-01-10T19:36:07.436Z,8.35
2023-01-10T19:38:35.450Z,10.98
2023-01-10T19:41:04.154Z,10.05
2023-01-10T19:43:34.047Z,8.02
2023-01-10T19:46:09.183Z,9.35
2023-01-10T19:48:38.799Z,10.40
2023-01-10T19:51:08.452Z,11.50
2023-01-10T19:53:36.782Z,11.20
2023-01-10T19:56:07.461Z,11.98
2023-01-10T19:58:36.305Z,8.25
2023-01-10T20:01:09.712Z,12.73
2023-01-10T20:03:40.957Z,14.15
2023-01-10T20:06:10.661Z,6.03
2023-01-10T20:08:38.430Z,14.15
2023-01-10T20:11:07.619Z,7.78
2023-01-10T20:13:37.275Z,9.57
2023-01-10T20:16:05.784Z,9.63
2023-01-10T20:18:34.642Z,11.27
2023-01-10T20:21:07.242Z,8.55
2023-01-10T20:23:35.155Z,7.63
2023-01-10T20:26:06.529Z,10.00
2023-01-10T20:28:35.303Z,8.43
2023-01-10T20:31:03.847Z,8.35
2023-01-10T20:33:34.536Z,8.23
2023-01-10T20:36:05.978Z,13.30
2023-01-10T20:38:35.901Z,8.88
2023-01-10T20:41:06.414Z,10.73
2023-01-10T20:43:34.791Z,10.48
2023-01-10T20:46:06.782Z,10.52
2023-01-10T20:48:35.544Z,7.43
2023-01-10T20:51:06.505Z,11.73
2023-01-10T20:53:34.527Z,8.82
2023-01-10T20:56:03.181Z,8.32
2023-01-10T20:58:31.473Z,9.10
2023-01-10T21:00:59.221Z,4.53
2023-01-10T21:03:26.953Z,8.02
2023-01-10T21:05:55.702Z,9.57
2023-01-10T21:08:25.427Z,6.25
2023-01-10T21:10:54.121Z,8.82
2023-01-10T21:13:22.448Z,10.68
2023-01-10T21:15:54.978Z,9.25
2023-01-10T21:18:25.202Z,9.00
2023-01-10T21:20:54.987Z,7.68
2023-01-10T21:23:26.517Z,9.90
2023-01-10T21:25:55.138Z,4.88
2023-01-10T21:28:24.165Z,4.88
2023-01-10T21:30:54.049Z,13.93
2023-01-10T21:33:22.260Z,8.75
2023-01-10T21:35:54.289Z,6.90
2023-01-10T21:38:22.635Z,7.28
2023-01-10T21:40:52.047Z,6.00
2023-01-10T21:43:21.708Z,9.02
2023-01-10T21:45:50.093Z,6.45
2023-01-10T21:48:17.855Z,8.45
2023-01-10T21:50:52.090Z,11.20
2023-01-10T21:53:20.517Z,8.63
2023-01-10T21:55:48.328Z,7.15
2023-01-10T21:58:17.742Z,4.53
2023-01-10T22:00:45.622Z,11.93
2023-01-10T22:03:13.370Z,4.43
2023-01-10T22:05:42.506Z,5.90
2023-01-10T22:08:10.377Z,7.72
2023-01-10T22:10:38.187Z,5.03
2023-01-10T22:13:08.330Z,5.38
2023-01-10T22:15:38.153Z,8.20
2023-01-10T22:18:06.094Z,7.05
2023-01-10T22:20:34.052Z,3.47
2023-01-10T22:23:01.871Z,8.23
2023-01-10T22:25:30.617Z,6.53
2023-01-10T22:27:58.427Z,9.48
2023-01-10T22:30:26.361Z,5.20
2023-01-10T22:32:58.726Z,5.40
2023-01-10T22:35:27.249Z,7.18
2023-01-10T22:37:56.672Z,7.88
2023-01-10T22:40:24.862Z,11.63
2023-01-10T22:42:53.656Z,7.90
2023-01-10T22:45:24.063Z,3.40
2023-01-10T22:48:13.195Z,4.90
2023-01-10T22:50:48.740Z,5.15
2023-01-10T22:53:16.557Z,6.00
2023-01-10T22:55:44.625Z,3.55
2023-01-10T22:58:12.360Z,6.80
2023-01-10T23:03:28.719Z,9.20
2023-01-10T23:05:57.311Z,6.25
2023-01-10T23:08:26.183Z,9.07
2023-01-10T23:10:55.004Z,5.97
2023-01-10T23:13:23.399Z,2.67
2023-01-10T23:15:57.172Z,7.43
2023-01-10T23:18:25.228Z,12.40
2023-01-10T23:20:54.943Z,6.55
2023-01-10T23:23:23.234Z,6.65
2023-01-10T23:26:02.289Z,4.07
2023-01-10T23:28:31.084Z,6.00
2023-01-10T23:30:59.081Z,5.20
2023-01-10T23:33:27.123Z,8.80
2023-01-10T23:35:56.369Z,4.32
2023-01-10T23:38:24.610Z,6.72
2023-01-10T23:40:52.764Z,3.92
2023-01-10T23:43:21.455Z,5.35
2023-01-10T23:45:49.425Z,10.55
2023-01-10T23:48:17.766Z,7.25
2023-01-10T23:50:47.789Z,6.47
2023-01-10T23:53:17.677Z,6.30
2023-01-10T23:55:45.575Z,6.20
2023-01-10T23:58:13.806Z,5.45
